sensor_id;sensor_type;location;lat;lon;timestamp;temperature;humidity
7502;DHT22;3792;47.740;7.606;2022-09-27T00:00:01;11.90;99.90
7502;DHT22;3792;47.740;7.606;2022-09-27T00:02:29;11.80;99.90
7502;DHT22;3792;47.740;7.606;2022-09-27T00:04:56;11.70;99.90
7502;DHT22;3792;47.740;7.606;2022-09-27T00:07:24;11.70;99.90
7502;DHT22;3792;47.740;7.606;2022-09-27T00:09:51;11.70;99.90
7502;DHT22;3792;47.740;7.606;2022-09-27T00:12:18;11.80;99.90
7502;DHT22;3792;47.740;7.606;2022-09-27T00:14:45;11.80;99.90
7502;DHT22;3792;47.740;7.606;2022-09-27T00:17:12;11.90;99.90
7502;DHT22;3792;47.740;7.606;2022-09-27T00:19:40;11.90;99.90
7502;DHT22;3792;47.740;7.606;2022-09-27T00:22:07;11.80;99.90
7502;DHT22;3792;47.740;7.606;2022-09-27T00:24:34;11.90;99.90
7502;DHT22;3792;47.740;7.606;2022-09-27T00:27:01;12.00;99.90
7502;DHT22;3792;47.740;7.606;2022-09-27T00:29:29;12.00;99.90
7502;DHT22;3792;47.740;7.606;2022-09-27T00:31:56;12.00;99.90
7502;DHT22;3792;47.740;7.606;2022-09-27T00:34:24;12.00;99.90
7502;DHT22;3792;47.740;7.606;2022-09-27T00:36:53;12.00;99.90
7502;DHT22;3792;47.740;7.606;2022-09-27T00:39:20;11.90;99.90
7502;DHT22;3792;47.740;7.606;2022-09-27T00:41:47;11.90;99.90
7502;DHT22;3792;47.740;7.606;2022-09-27T00:47:23;11.90;99.90
7502;DHT22;3792;47.740;7.606;2022-09-27T00:49:55;11.90;99.90
7502;DHT22;3792;47.740;7.606;2022-09-27T00:52:29;11.90;99.90
7502;DHT22;3792;47.740;7.606;2022-09-27T00:55:02;11.90;99.90
7502;DHT22;3792;47.740;7.606;2022-09-27T00:57:30;11.90;99.90
7502;DHT22;3792;47.740;7.606;2022-09-27T01:00:00;11.80;99.90
7502;DHT22;3792;47.740;7.606;2022-09-27T01:02:28;11.90;99.90
7502;DHT22;3792;47.740;7.606;2022-09-27T01:04:57;11.80;99.90
7502;DHT22;3792;47.740;7.606;2022-09-27T01:07:25;11.80;99.90
7502;DHT22;3792;47.740;7.606;2022-09-27T01:09:52;11.80;99.90
7502;DHT22;3792;47.740;7.606;2022-09-27T01:12:34;11.90;99.90
7502;DHT22;3792;47.740;7.606;2022-09-27T01:15:15;11.90;99.90
7502;DHT22;3792;47.740;7.606;2022-09-27T01:17:52;11.90;99.90
7502;DHT22;3792;47.740;7.606;2022-09-27T01:26:31;11.90;99.90
7502;DHT22;3792;47.740;7.606;2022-09-27T01:29:06;11.90;99.90
7502;DHT22;3792;47.740;7.606;2022-09-27T01:31:41;11.90;99.90
7502;DHT22;3792;47.740;7.606;2022-09-27T01:34:20;11.90;99.90
7502;DHT22;3792;47.740;7.606;2022-09-27T01:36:53;11.90;99.90
7502;DHT22;3792;47.740;7.606;2022-09-27T01:39:32;11.90;99.90
7502;DHT22;3792;47.740;7.606;2022-09-27T01:42:09;11.90;99.90
7502;DHT22;3792;47.740;7.606;2022-09-27T01:44:42;11.90;99.90
7502;DHT22;3792;47.740;7.606;2022-09-27T01:47:15;11.80;99.90
7502;DHT22;3792;47.740;7.606;2022-09-27T01:49:48;11.80;99.90
7502;DHT22;3792;47.740;7.606;2022-09-27T01:52:23;11.80;99.90
7502;DHT22;3792;47.740;7.606;2022-09-27T01:54:55;11.80;99.90
7502;DHT22;3792;47.740;7.606;2022-09-27T01:57:25;11.80;99.90
7502;DHT22;3792;47.740;7.606;2022-09-27T01:59:57;11.80;99.90
7502;DHT22;3792;47.740;7.606;2022-09-27T02:02:29;11.90;99.90
7502;DHT22;3792;47.740;7.606;2022-09-27T02:05:02;11.80;99.90
7502;DHT22;3792;47.740;7.606;2022-09-27T02:07:38;11.80;99.90
7502;DHT22;3792;47.740;7.606;2022-09-27T02:10:09;11.80;99.90
7502;DHT22;3792;47.740;7.606;2022-09-27T02:12:41;11.80;99.90
7502;DHT22;3792;47.740;7.606;2022-09-27T02:15:13;11.80;99.90
7502;DHT22;3792;47.740;7.606;2022-09-27T02:17:45;11.80;99.90
7502;DHT22;3792;47.740;7.606;2022-09-27T02:20:18;11.80;99.90
7502;DHT22;3792;47.740;7.606;2022-09-27T02:22:52;11.70;99.90
7502;DHT22;3792;47.740;7.606;2022-09-27T02:25:23;11.70;99.90
7502;DHT22;3792;47.740;7.606;2022-09-27T02:27:58;11.60;99.90
7502;DHT22;3792;47.740;7.606;2022-09-27T02:30:26;11.60;99.90
7502;DHT22;3792;47.740;7.606;2022-09-27T02:32:54;11.60;99.90
7502;DHT22;3792;47.740;7.606;2022-09-27T02:35:25;11.60;99.90
7502;DHT22;3792;47.740;7.606;2022-09-27T02:37:53;11.50;99.90
7502;DHT22;3792;47.740;7.606;2022-09-27T02:40:20;11.50;99.90
7502;DHT22;3792;47.740;7.606;2022-09-27T02:42:48;11.50;99.90
7502;DHT22;3792;47.740;7.606;2022-09-27T02:45:17;11.50;99.90
7502;DHT22;3792;47.740;7.606;2022-09-27T02:47:59;11.50;99.90
7502;DHT22;3792;47.740;7.606;2022-09-27T02:50:58;11.40;99.90
7502;DHT22;3792;47.740;7.606;2022-09-27T02:53:37;11.40;99.90
7502;DHT22;3792;47.740;7.606;2022-09-27T02:56:15;11.50;99.90
7502;DHT22;3792;47.740;7.606;2022-09-27T02:58:55;11.50;99.90
7502;DHT22;3792;47.740;7.606;2022-09-27T03:01:29;11.50;99.90
7502;DHT22;3792;47.740;7.606;2022-09-27T03:04:03;11.50;99.90
7502;DHT22;3792;47.740;7.606;2022-09-27T03:06:32;11.50;99.90
7502;DHT22;3792;47.740;7.606;2022-09-27T03:08:59;11.50;99.90
7502;DHT22;3792;47.740;7.606;2022-09-27T03:11:27;11.60;99.90
7502;DHT22;3792;47.740;7.606;2022-09-27T03:13:55;11.50;99.90
7502;DHT22;3792;47.740;7.606;2022-09-27T03:16:22;11.50;99.90
7502;DHT22;3792;47.740;7.606;2022-09-27T03:18:49;11.50;99.90
7502;DHT22;3792;47.740;7.606;2022-09-27T03:21:17;11.50;99.90
7502;DHT22;3792;47.740;7.606;2022-09-27T03:23:44;11.60;99.90
7502;DHT22;3792;47.740;7.606;2022-09-27T03:26:11;11.60;99.90
7502;DHT22;3792;47.740;7.606;2022-09-27T03:28:38;11.60;99.90
7502;DHT22;3792;47.740;7.606;2022-09-27T03:31:06;11.50;99.90
7502;DHT22;3792;47.740;7.606;2022-09-27T03:33:33;11.50;99.90
7502;DHT22;3792;47.740;7.606;2022-09-27T03:36:00;11.50;99.90
7502;DHT22;3792;47.740;7.606;2022-09-27T03:38:29;11.40;99.90
7502;DHT22;3792;47.740;7.606;2022-09-27T03:40:56;11.40;99.90
7502;DHT22;3792;47.740;7.606;2022-09-27T03:43:23;11.40;99.90
7502;DHT22;3792;47.740;7.606;2022-09-27T03:45:50;11.30;99.90
7502;DHT22;3792;47.740;7.606;2022-09-27T03:48:18;11.40;99.90
7502;DHT22;3792;47.740;7.606;2022-09-27T03:50:45;11.40;99.90
7502;DHT22;3792;47.740;7.606;2022-09-27T03:53:12;11.40;99.90
7502;DHT22;3792;47.740;7.606;2022-09-27T03:55:40;11.40;99.90
7502;DHT22;3792;47.740;7.606;2022-09-27T03:58:07;11.40;99.90
7502;DHT22;3792;47.740;7.606;2022-09-27T04:00:34;11.40;99.90
7502;DHT22;3792;47.740;7.606;2022-09-27T04:03:01;11.40;99.90
7502;DHT22;3792;47.740;7.606;2022-09-27T04:05:29;11.40;99.90
7502;DHT22;3792;47.740;7.606;2022-09-27T04:07:56;11.40;99.90
7502;DHT22;3792;47.740;7.606;2022-09-27T04:10:23;11.30;99.90
7502;DHT22;3792;47.740;7.606;2022-09-27T04:12:51;11.30;99.90
7502;DHT22;3792;47.740;7.606;2022-09-27T04:15:18;11.30;99.90
7502;DHT22;3792;47.740;7.606;2022-09-27T04:17:45;11.30;99.90
7502;DHT22;3792;47.740;7.606;2022-09-27T04:20:12;11.30;99.90
7502;DHT22;3792;47.740;7.606;2022-09-27T04:22:40;11.20;99.90
7502;DHT22;3792;47.740;7.606;2022-09-27T04:25:10;11.20;99.90
7502;DHT22;3792;47.740;7.606;2022-09-27T04:27:38;11.30;99.90
7502;DHT22;3792;47.740;7.606;2022-09-27T04:30:10;11.30;99.90
7502;DHT22;3792;47.740;7.606;2022-09-27T04:32:40;11.20;99.90
7502;DHT22;3792;47.740;7.606;2022-09-27T04:35:07;11.20;99.90
7502;DHT22;3792;47.740;7.606;2022-09-27T04:37:55;11.30;99.90
7502;DHT22;3792;47.740;7.606;2022-09-27T04:40:22;11.20;99.90
7502;DHT22;3792;47.740;7.606;2022-09-27T04:42:49;11.20;99.90
7502;DHT22;3792;47.740;7.606;2022-09-27T04:45:18;11.20;99.90
7502;DHT22;3792;47.740;7.606;2022-09-27T04:47:48;11.20;99.90
7502;DHT22;3792;47.740;7.606;2022-09-27T04:50:16;11.20;99.90
7502;DHT22;3792;47.740;7.606;2022-09-27T04:52:49;11.20;99.90
7502;DHT22;3792;47.740;7.606;2022-09-27T04:55:16;11.20;99.90
7502;DHT22;3792;47.740;7.606;2022-09-27T04:57:43;11.10;99.90
7502;DHT22;3792;47.740;7.606;2022-09-27T05:00:11;11.10;99.90
7502;DHT22;3792;47.740;7.606;2022-09-27T05:02:41;11.00;99.90
7502;DHT22;3792;47.740;7.606;2022-09-27T05:05:09;11.00;99.90
7502;DHT22;3792;47.740;7.606;2022-09-27T05:07:37;11.00;99.90
7502;DHT22;3792;47.740;7.606;2022-09-27T05:10:05;11.00;99.90
7502;DHT22;3792;47.740;7.606;2022-09-27T05:12:32;11.00;99.90
7502;DHT22;3792;47.740;7.606;2022-09-27T05:15:00;10.90;99.90
7502;DHT22;3792;47.740;7.606;2022-09-27T05:17:27;11.00;99.90
7502;DHT22;3792;47.740;7.606;2022-09-27T05:19:56;11.00;99.90
7502;DHT22;3792;47.740;7.606;2022-09-27T05:22:23;11.00;99.90
7502;DHT22;3792;47.740;7.606;2022-09-27T05:24:50;11.00;99.90
7502;DHT22;3792;47.740;7.606;2022-09-27T05:27:17;11.00;99.90
7502;DHT22;3792;47.740;7.606;2022-09-27T05:29:45;11.10;99.90
7502;DHT22;3792;47.740;7.606;2022-09-27T05:32:12;11.00;99.90
7502;DHT22;3792;47.740;7.606;2022-09-27T05:34:40;11.00;99.90
7502;DHT22;3792;47.740;7.606;2022-09-27T05:37:08;11.00;99.90
7502;DHT22;3792;47.740;7.606;2022-09-27T05:39:35;11.20;99.90
7502;DHT22;3792;47.740;7.606;2022-09-27T05:42:02;11.60;99.90
7502;DHT22;3792;47.740;7.606;2022-09-27T05:44:31;12.10;99.90
7502;DHT22;3792;47.740;7.606;2022-09-27T05:47:00;12.50;99.90
7502;DHT22;3792;47.740;7.606;2022-09-27T05:49:28;12.60;99.90
7502;DHT22;3792;47.740;7.606;2022-09-27T05:51:55;12.60;99.90
7502;DHT22;3792;47.740;7.606;2022-09-27T05:54:24;12.40;99.90
7502;DHT22;3792;47.740;7.606;2022-09-27T05:56:53;12.30;99.90
7502;DHT22;3792;47.740;7.606;2022-09-27T05:59:23;12.40;99.90
7502;DHT22;3792;47.740;7.606;2022-09-27T06:01:50;12.50;99.90
7502;DHT22;3792;47.740;7.606;2022-09-27T06:04:18;12.30;99.90
7502;DHT22;3792;47.740;7.606;2022-09-27T06:06:45;12.40;99.90
7502;DHT22;3792;47.740;7.606;2022-09-27T06:09:13;12.30;99.90
7502;DHT22;3792;47.740;7.606;2022-09-27T06:11:42;12.20;99.90
7502;DHT22;3792;47.740;7.606;2022-09-27T06:14:10;12.00;99.90
7502;DHT22;3792;47.740;7.606;2022-09-27T06:16:37;11.80;99.90
7502;DHT22;3792;47.740;7.606;2022-09-27T06:19:04;11.50;99.90
7502;DHT22;3792;47.740;7.606;2022-09-27T06:21:31;11.40;99.90
7502;DHT22;3792;47.740;7.606;2022-09-27T06:23:58;11.40;99.90
7502;DHT22;3792;47.740;7.606;2022-09-27T06:26:25;11.30;99.90
7502;DHT22;3792;47.740;7.606;2022-09-27T06:28:54;11.30;99.90
7502;DHT22;3792;47.740;7.606;2022-09-27T06:31:22;11.30;99.90
7502;DHT22;3792;47.740;7.606;2022-09-27T06:33:49;11.30;99.90
7502;DHT22;3792;47.740;7.606;2022-09-27T06:36:17;11.30;99.90
7502;DHT22;3792;47.740;7.606;2022-09-27T06:38:44;11.20;99.90
7502;DHT22;3792;47.740;7.606;2022-09-27T06:41:13;11.10;99.90
7502;DHT22;3792;47.740;7.606;2022-09-27T06:43:41;11.00;99.90
7502;DHT22;3792;47.740;7.606;2022-09-27T06:46:09;11.00;99.90
7502;DHT22;3792;47.740;7.606;2022-09-27T06:48:36;11.00;99.90
7502;DHT22;3792;47.740;7.606;2022-09-27T06:51:04;11.00;99.90
7502;DHT22;3792;47.740;7.606;2022-09-27T06:53:31;11.00;99.90
7502;DHT22;3792;47.740;7.606;2022-09-27T06:55:58;10.90;99.90
7502;DHT22;3792;47.740;7.606;2022-09-27T06:58:26;11.00;99.90
7502;DHT22;3792;47.740;7.606;2022-09-27T07:01:12;11.00;99.90
7502;DHT22;3792;47.740;7.606;2022-09-27T07:03:40;11.00;99.90
7502;DHT22;3792;47.740;7.606;2022-09-27T07:06:15;11.10;99.90
7502;DHT22;3792;47.740;7.606;2022-09-27T07:08:43;11.10;99.90
7502;DHT22;3792;47.740;7.606;2022-09-27T07:11:10;11.10;99.90
7502;DHT22;3792;47.740;7.606;2022-09-27T07:13:37;11.10;99.90
7502;DHT22;3792;47.740;7.606;2022-09-27T07:16:12;11.20;99.90
7502;DHT22;3792;47.740;7.606;2022-09-27T07:18:39;11.20;99.90
7502;DHT22;3792;47.740;7.606;2022-09-27T07:21:07;11.20;99.90
7502;DHT22;3792;47.740;7.606;2022-09-27T07:23:35;11.20;99.90
7502;DHT22;3792;47.740;7.606;2022-09-27T07:26:03;11.20;99.90
7502;DHT22;3792;47.740;7.606;2022-09-27T07:28:32;11.20;99.90
7502;DHT22;3792;47.740;7.606;2022-09-27T07:30:59;11.20;99.90
7502;DHT22;3792;47.740;7.606;2022-09-27T07:33:28;11.20;99.90
7502;DHT22;3792;47.740;7.606;2022-09-27T07:35:55;11.20;99.90
7502;DHT22;3792;47.740;7.606;2022-09-27T07:38:22;11.20;99.90
7502;DHT22;3792;47.740;7.606;2022-09-27T07:40:50;11.40;99.90
7502;DHT22;3792;47.740;7.606;2022-09-27T07:43:17;11.40;99.90
7502;DHT22;3792;47.740;7.606;2022-09-27T07:45:44;11.50;99.90
7502;DHT22;3792;47.740;7.606;2022-09-27T07:48:13;11.50;99.90
7502;DHT22;3792;47.740;7.606;2022-09-27T07:50:42;11.50;99.90
7502;DHT22;3792;47.740;7.606;2022-09-27T07:53:09;11.50;99.90
7502;DHT22;3792;47.740;7.606;2022-09-27T07:55:38;11.60;99.90
7502;DHT22;3792;47.740;7.606;2022-09-27T07:58:08;11.60;99.90
7502;DHT22;3792;47.740;7.606;2022-09-27T08:00:36;11.50;99.90
7502;DHT22;3792;47.740;7.606;2022-09-27T08:03:04;11.50;99.90
7502;DHT22;3792;47.740;7.606;2022-09-27T08:05:33;11.60;99.90
7502;DHT22;3792;47.740;7.606;2022-09-27T08:08:02;11.50;99.90
7502;DHT22;3792;47.740;7.606;2022-09-27T08:10:30;11.50;99.90
7502;DHT22;3792;47.740;7.606;2022-09-27T08:12:58;11.50;99.90
7502;DHT22;3792;47.740;7.606;2022-09-27T08:15:28;11.60;99.90
7502;DHT22;3792;47.740;7.606;2022-09-27T08:17:55;11.60;99.90
7502;DHT22;3792;47.740;7.606;2022-09-27T08:20:22;11.60;99.90
7502;DHT22;3792;47.740;7.606;2022-09-27T08:22:49;11.70;99.90
7502;DHT22;3792;47.740;7.606;2022-09-27T08:25:18;11.80;99.90
7502;DHT22;3792;47.740;7.606;2022-09-27T08:27:54;11.80;99.90
7502;DHT22;3792;47.740;7.606;2022-09-27T08:30:22;11.80;99.90
7502;DHT22;3792;47.740;7.606;2022-09-27T08:32:54;11.90;99.90
7502;DHT22;3792;47.740;7.606;2022-09-27T08:35:22;11.90;99.90
7502;DHT22;3792;47.740;7.606;2022-09-27T08:37:53;11.90;99.90
7502;DHT22;3792;47.740;7.606;2022-09-27T08:40:23;11.90;99.90
7502;DHT22;3792;47.740;7.606;2022-09-27T08:43:00;11.80;99.90
7502;DHT22;3792;47.740;7.606;2022-09-27T08:45:34;11.80;99.90
7502;DHT22;3792;47.740;7.606;2022-09-27T08:48:04;11.80;99.90
7502;DHT22;3792;47.740;7.606;2022-09-27T08:50:35;11.70;99.90
7502;DHT22;3792;47.740;7.606;2022-09-27T08:53:10;11.60;99.90
7502;DHT22;3792;47.740;7.606;2022-09-27T08:55:42;11.60;99.90
7502;DHT22;3792;47.740;7.606;2022-09-27T08:58:13;11.70;99.90
7502;DHT22;3792;47.740;7.606;2022-09-27T09:00:42;11.70;99.90
7502;DHT22;3792;47.740;7.606;2022-09-27T09:03:16;11.80;99.90
7502;DHT22;3792;47.740;7.606;2022-09-27T09:05:51;11.80;99.90
7502;DHT22;3792;47.740;7.606;2022-09-27T09:08:30;11.70;99.90
7502;DHT22;3792;47.740;7.606;2022-09-27T09:11:06;11.60;99.90
7502;DHT22;3792;47.740;7.606;2022-09-27T09:14:07;11.60;99.90
7502;DHT22;3792;47.740;7.606;2022-09-27T09:16:44;11.50;99.90
7502;DHT22;3792;47.740;7.606;2022-09-27T09:19:40;11.50;99.90
7502;DHT22;3792;47.740;7.606;2022-09-27T09:22:28;11.40;99.90
7502;DHT22;3792;47.740;7.606;2022-09-27T09:25:11;11.40;99.90
7502;DHT22;3792;47.740;7.606;2022-09-27T09:27:46;11.30;99.90
7502;DHT22;3792;47.740;7.606;2022-09-27T09:30:19;11.40;99.90
7502;DHT22;3792;47.740;7.606;2022-09-27T09:33:00;11.40;99.90
7502;DHT22;3792;47.740;7.606;2022-09-27T09:35:35;11.40;99.90
7502;DHT22;3792;47.740;7.606;2022-09-27T09:38:08;11.40;99.90
7502;DHT22;3792;47.740;7.606;2022-09-27T09:40:40;11.50;99.90
7502;DHT22;3792;47.740;7.606;2022-09-27T09:43:14;11.50;99.90
7502;DHT22;3792;47.740;7.606;2022-09-27T09:45:46;11.60;99.90
7502;DHT22;3792;47.740;7.606;2022-09-27T09:48:21;11.60;99.90
7502;DHT22;3792;47.740;7.606;2022-09-27T09:50:52;11.60;99.90
7502;DHT22;3792;47.740;7.606;2022-09-27T09:53:24;11.60;99.90
7502;DHT22;3792;47.740;7.606;2022-09-27T09:55:58;11.70;99.90
7502;DHT22;3792;47.740;7.606;2022-09-27T09:58:31;11.60;99.90
7502;DHT22;3792;47.740;7.606;2022-09-27T10:01:12;11.60;99.90
7502;DHT22;3792;47.740;7.606;2022-09-27T10:03:40;11.60;99.90
7502;DHT22;3792;47.740;7.606;2022-09-27T10:06:09;11.60;99.90
7502;DHT22;3792;47.740;7.606;2022-09-27T10:08:37;11.70;99.90
7502;DHT22;3792;47.740;7.606;2022-09-27T10:11:05;11.70;99.90
7502;DHT22;3792;47.740;7.606;2022-09-27T10:13:34;11.80;99.90
7502;DHT22;3792;47.740;7.606;2022-09-27T10:16:05;11.90;99.90
7502;DHT22;3792;47.740;7.606;2022-09-27T10:18:34;12.00;99.90
7502;DHT22;3792;47.740;7.606;2022-09-27T10:21:06;12.00;99.90
7502;DHT22;3792;47.740;7.606;2022-09-27T10:23:33;12.10;99.90
7502;DHT22;3792;47.740;7.606;2022-09-27T10:26:03;12.20;99.90
7502;DHT22;3792;47.740;7.606;2022-09-27T10:28:36;12.30;99.90
7502;DHT22;3792;47.740;7.606;2022-09-27T10:31:08;12.40;99.90
7502;DHT22;3792;47.740;7.606;2022-09-27T10:33:38;12.50;99.90
7502;DHT22;3792;47.740;7.606;2022-09-27T10:36:22;12.60;99.90
7502;DHT22;3792;47.740;7.606;2022-09-27T10:38:51;12.80;99.90
7502;DHT22;3792;47.740;7.606;2022-09-27T10:41:25;12.90;99.90
7502;DHT22;3792;47.740;7.606;2022-09-27T10:44:19;13.00;99.90
7502;DHT22;3792;47.740;7.606;2022-09-27T10:46:49;13.00;99.90
7502;DHT22;3792;47.740;7.606;2022-09-27T10:49:20;12.90;99.90
7502;DHT22;3792;47.740;7.606;2022-09-27T10:51:54;12.80;99.90
7502;DHT22;3792;47.740;7.606;2022-09-27T10:54:32;12.70;99.90
7502;DHT22;3792;47.740;7.606;2022-09-27T10:57:04;12.60;99.90
7502;DHT22;3792;47.740;7.606;2022-09-27T10:59:35;12.40;99.90
7502;DHT22;3792;47.740;7.606;2022-09-27T11:02:06;12.40;99.90
7502;DHT22;3792;47.740;7.606;2022-09-27T11:05:02;12.40;99.90
7502;DHT22;3792;47.740;7.606;2022-09-27T11:07:29;12.40;99.90
7502;DHT22;3792;47.740;7.606;2022-09-27T11:09:57;12.30;99.90
7502;DHT22;3792;47.740;7.606;2022-09-27T11:12:27;12.20;99.90
7502;DHT22;3792;47.740;7.606;2022-09-27T11:15:00;12.10;99.90
7502;DHT22;3792;47.740;7.606;2022-09-27T11:17:33;12.10;99.90
7502;DHT22;3792;47.740;7.606;2022-09-27T11:20:20;12.10;99.90
7502;DHT22;3792;47.740;7.606;2022-09-27T11:23:10;12.30;99.90
7502;DHT22;3792;47.740;7.606;2022-09-27T11:25:45;12.40;99.90
7502;DHT22;3792;47.740;7.606;2022-09-27T11:28:27;12.40;99.90
7502;DHT22;3792;47.740;7.606;2022-09-27T11:31:01;12.50;99.90
7502;DHT22;3792;47.740;7.606;2022-09-27T11:33:55;12.60;99.90
7502;DHT22;3792;47.740;7.606;2022-09-27T11:36:36;12.80;99.90
7502;DHT22;3792;47.740;7.606;2022-09-27T11:39:11;12.80;99.90
7502;DHT22;3792;47.740;7.606;2022-09-27T11:41:51;12.80;99.90
7502;DHT22;3792;47.740;7.606;2022-09-27T11:44:39;12.80;99.90
7502;DHT22;3792;47.740;7.606;2022-09-27T11:47:15;12.80;99.90
7502;DHT22;3792;47.740;7.606;2022-09-27T11:52:54;12.70;99.90
7502;DHT22;3792;47.740;7.606;2022-09-27T11:55:34;12.60;99.90
7502;DHT22;3792;47.740;7.606;2022-09-27T11:58:12;12.60;99.90
7502;DHT22;3792;47.740;7.606;2022-09-27T12:00:55;12.70;99.90
7502;DHT22;3792;47.740;7.606;2022-09-27T12:03:51;13.20;99.90
7502;DHT22;3792;47.740;7.606;2022-09-27T12:06:32;13.90;99.90
7502;DHT22;3792;47.740;7.606;2022-09-27T12:09:04;14.80;99.90
7502;DHT22;3792;47.740;7.606;2022-09-27T12:11:38;15.20;99.90
7502;DHT22;3792;47.740;7.606;2022-09-27T12:14:11;14.90;99.90
7502;DHT22;3792;47.740;7.606;2022-09-27T12:16:41;14.90;99.90
7502;DHT22;3792;47.740;7.606;2022-09-27T12:19:16;15.10;99.90
7502;DHT22;3792;47.740;7.606;2022-09-27T12:21:44;14.80;99.90
7502;DHT22;3792;47.740;7.606;2022-09-27T12:24:18;14.40;99.90
7502;DHT22;3792;47.740;7.606;2022-09-27T12:26:48;14.30;99.90
7502;DHT22;3792;47.740;7.606;2022-09-27T12:29:21;14.10;99.90
7502;DHT22;3792;47.740;7.606;2022-09-27T12:31:55;13.80;99.90
7502;DHT22;3792;47.740;7.606;2022-09-27T12:34:34;13.70;99.90
7502;DHT22;3792;47.740;7.606;2022-09-27T12:37:07;13.50;99.90
7502;DHT22;3792;47.740;7.606;2022-09-27T12:39:41;13.40;99.90
7502;DHT22;3792;47.740;7.606;2022-09-27T12:42:19;13.40;99.90
7502;DHT22;3792;47.740;7.606;2022-09-27T12:44:47;13.30;99.90
7502;DHT22;3792;47.740;7.606;2022-09-27T12:47:23;13.30;99.90
7502;DHT22;3792;47.740;7.606;2022-09-27T12:50:01;13.40;99.90
7502;DHT22;3792;47.740;7.606;2022-09-27T12:52:32;13.40;99.90
7502;DHT22;3792;47.740;7.606;2022-09-27T12:55:46;13.50;99.90
7502;DHT22;3792;47.740;7.606;2022-09-27T12:58:45;13.50;99.90
7502;DHT22;3792;47.740;7.606;2022-09-27T13:01:25;13.50;99.90
7502;DHT22;3792;47.740;7.606;2022-09-27T13:04:19;13.50;99.90
7502;DHT22;3792;47.740;7.606;2022-09-27T13:07:13;13.60;99.90
7502;DHT22;3792;47.740;7.606;2022-09-27T13:12:52;13.50;99.90
7502;DHT22;3792;47.740;7.606;2022-09-27T13:15:25;13.50;99.90
7502;DHT22;3792;47.740;7.606;2022-09-27T13:17:55;13.50;99.90
7502;DHT22;3792;47.740;7.606;2022-09-27T13:20:51;13.50;99.90
7502;DHT22;3792;47.740;7.606;2022-09-27T13:26:58;13.40;99.90
7502;DHT22;3792;47.740;7.606;2022-09-27T13:29:29;13.20;99.90
7502;DHT22;3792;47.740;7.606;2022-09-27T13:32:19;13.20;99.90
7502;DHT22;3792;47.740;7.606;2022-09-27T13:34:49;13.20;99.90
7502;DHT22;3792;47.740;7.606;2022-09-27T13:37:45;13.20;99.90
7502;DHT22;3792;47.740;7.606;2022-09-27T13:40:29;13.10;99.90
7502;DHT22;3792;47.740;7.606;2022-09-27T13:43:37;13.00;99.90
7502;DHT22;3792;47.740;7.606;2022-09-27T13:46:14;13.00;99.90
7502;DHT22;3792;47.740;7.606;2022-09-27T13:48:46;12.90;99.90
7502;DHT22;3792;47.740;7.606;2022-09-27T13:51:32;12.90;99.90
7502;DHT22;3792;47.740;7.606;2022-09-27T13:54:01;12.90;99.90
7502;DHT22;3792;47.740;7.606;2022-09-27T13:56:50;13.00;99.90
7502;DHT22;3792;47.740;7.606;2022-09-27T13:59:23;13.10;99.90
7502;DHT22;3792;47.740;7.606;2022-09-27T14:01:53;13.20;99.90
7502;DHT22;3792;47.740;7.606;2022-09-27T14:04:25;13.30;99.90
7502;DHT22;3792;47.740;7.606;2022-09-27T14:06:56;13.20;99.90
7502;DHT22;3792;47.740;7.606;2022-09-27T14:09:26;13.10;99.90
7502;DHT22;3792;47.740;7.606;2022-09-27T14:11:57;12.80;99.90
7502;DHT22;3792;47.740;7.606;2022-09-27T14:14:29;12.70;99.90
7502;DHT22;3792;47.740;7.606;2022-09-27T14:16:59;12.70;99.90
7502;DHT22;3792;47.740;7.606;2022-09-27T14:19:27;12.70;99.90
7502;DHT22;3792;47.740;7.606;2022-09-27T14:21:56;12.70;99.90
7502;DHT22;3792;47.740;7.606;2022-09-27T14:24:26;12.60;99.90
7502;DHT22;3792;47.740;7.606;2022-09-27T14:27:19;12.60;99.90
7502;DHT22;3792;47.740;7.606;2022-09-27T14:29:50;12.60;99.90
7502;DHT22;3792;47.740;7.606;2022-09-27T14:32:20;12.70;99.90
7502;DHT22;3792;47.740;7.606;2022-09-27T14:35:06;12.70;99.90
7502;DHT22;3792;47.740;7.606;2022-09-27T14:37:54;12.70;99.90
7502;DHT22;3792;47.740;7.606;2022-09-27T14:40:21;12.60;99.90
7502;DHT22;3792;47.740;7.606;2022-09-27T14:42:52;12.60;99.90
7502;DHT22;3792;47.740;7.606;2022-09-27T14:45:26;12.60;99.90
7502;DHT22;3792;47.740;7.606;2022-09-27T14:47:54;12.60;99.90
7502;DHT22;3792;47.740;7.606;2022-09-27T14:50:24;12.60;99.90
7502;DHT22;3792;47.740;7.606;2022-09-27T14:52:54;12.60;99.90
7502;DHT22;3792;47.740;7.606;2022-09-27T14:55:26;12.50;99.90
7502;DHT22;3792;47.740;7.606;2022-09-27T14:57:56;12.50;99.90
7502;DHT22;3792;47.740;7.606;2022-09-27T15:00:27;12.50;99.90
7502;DHT22;3792;47.740;7.606;2022-09-27T15:02:57;12.40;99.90
7502;DHT22;3792;47.740;7.606;2022-09-27T15:05:31;12.30;99.90
7502;DHT22;3792;47.740;7.606;2022-09-27T15:08:02;12.30;99.90
7502;DHT22;3792;47.740;7.606;2022-09-27T15:10:33;12.30;99.90
7502;DHT22;3792;47.740;7.606;2022-09-27T15:13:01;12.30;99.90
7502;DHT22;3792;47.740;7.606;2022-09-27T15:15:33;12.20;99.90
7502;DHT22;3792;47.740;7.606;2022-09-27T15:18:02;12.20;99.90
7502;DHT22;3792;47.740;7.606;2022-09-27T15:20:31;12.20;99.90
7502;DHT22;3792;47.740;7.606;2022-09-27T15:22:59;12.10;99.90
7502;DHT22;3792;47.740;7.606;2022-09-27T15:25:28;12.10;99.90
7502;DHT22;3792;47.740;7.606;2022-09-27T15:28:00;12.00;99.90
7502;DHT22;3792;47.740;7.606;2022-09-27T15:30:35;12.00;99.90
7502;DHT22;3792;47.740;7.606;2022-09-27T15:33:03;12.00;99.90
7502;DHT22;3792;47.740;7.606;2022-09-27T15:35:32;11.90;99.90
7502;DHT22;3792;47.740;7.606;2022-09-27T15:38:24;12.00;99.90
7502;DHT22;3792;47.740;7.606;2022-09-27T15:41:08;12.10;99.90
7502;DHT22;3792;47.740;7.606;2022-09-27T15:43:41;12.20;99.90
7502;DHT22;3792;47.740;7.606;2022-09-27T15:46:33;12.30;99.90
7502;DHT22;3792;47.740;7.606;2022-09-27T15:49:20;12.40;99.90
7502;DHT22;3792;47.740;7.606;2022-09-27T15:51:48;12.70;99.90
7502;DHT22;3792;47.740;7.606;2022-09-27T15:54:17;12.70;99.90
7502;DHT22;3792;47.740;7.606;2022-09-27T15:56:45;12.70;99.90
7502;DHT22;3792;47.740;7.606;2022-09-27T15:59:19;12.60;99.90
7502;DHT22;3792;47.740;7.606;2022-09-27T16:01:48;12.50;99.90
7502;DHT22;3792;47.740;7.606;2022-09-27T16:04:17;12.40;99.90
7502;DHT22;3792;47.740;7.606;2022-09-27T16:06:44;12.30;99.90
7502;DHT22;3792;47.740;7.606;2022-09-27T16:09:14;12.30;99.90
7502;DHT22;3792;47.740;7.606;2022-09-27T16:11:44;12.30;99.90
7502;DHT22;3792;47.740;7.606;2022-09-27T16:14:12;12.30;99.90
7502;DHT22;3792;47.740;7.606;2022-09-27T16:16:43;12.20;99.90
7502;DHT22;3792;47.740;7.606;2022-09-27T16:19:12;12.20;99.90
7502;DHT22;3792;47.740;7.606;2022-09-27T16:21:39;12.20;99.90
7502;DHT22;3792;47.740;7.606;2022-09-27T16:24:07;12.10;99.90
7502;DHT22;3792;47.740;7.606;2022-09-27T16:26:35;12.10;99.90
7502;DHT22;3792;47.740;7.606;2022-09-27T16:29:02;12.00;99.90
7502;DHT22;3792;47.740;7.606;2022-09-27T16:31:29;12.00;99.90
7502;DHT22;3792;47.740;7.606;2022-09-27T16:33:56;12.00;99.90
7502;DHT22;3792;47.740;7.606;2022-09-27T16:36:26;12.00;99.90
7502;DHT22;3792;47.740;7.606;2022-09-27T16:38:54;12.00;99.90
7502;DHT22;3792;47.740;7.606;2022-09-27T16:41:21;12.00;99.90
7502;DHT22;3792;47.740;7.606;2022-09-27T16:43:48;11.90;99.90
7502;DHT22;3792;47.740;7.606;2022-09-27T16:46:15;11.90;99.90
7502;DHT22;3792;47.740;7.606;2022-09-27T16:48:45;11.90;99.90
7502;DHT22;3792;47.740;7.606;2022-09-27T16:51:15;11.80;99.90